Time;durP1;ratioP1;P1;durP2;ratioP2;P2;SDS_P1;SDS_P2;PMS_P1;PMS_P2;Temp;Humidity;BMP_temperature;BMP_pressure;BME280_temperature;BME280_humidity;BME280_pressure;Samples;Min_cycle;Max_cycle;Signal;HPM_P1;HPM_P2
2022/09/05 00:01:09;;;;;;;;;;;17.50;99.90;;;;;;4973492;28;19933;-82
2022/09/05 00:03:41;;;;;;;;;;;17.50;99.90;;;;;;4973498;28;19956;-80
2022/09/05 00:06:11;;;;;;;;;;;17.30;99.90;;;;;;4951303;28;19933;-79
2022/09/05 00:08:50;;;;;;;;;;;17.30;99.90;;;;;;4949901;28;19910;-80
2022/09/05 00:11:23;;;;;;;;;;;17.30;99.90;;;;;;4968134;28;19992;-81
2022/09/05 00:14:17;;;;;;;;;;;17.30;99.90;;;;;;4957054;28;19914;-84
2022/09/05 00:16:53;;;;;;;;;;;17.30;99.90;;;;;;4946703;28;19914;-81
2022/09/05 00:19:23;;;;;;;;;;;17.30;99.90;;;;;;4959698;28;19965;-79
2022/09/05 00:21:54;;;;;;;;;;;17.30;99.90;;;;;;4963158;28;19922;-78
2022/09/05 00:24:44;;;;;;;;;;;17.30;99.90;;;;;;4953704;28;20337;-80
2022/09/05 00:27:20;;;;;;;;;;;17.30;99.90;;;;;;4976415;28;19981;-82
2022/09/05 00:30:05;;;;;;;;;;;17.30;99.90;;;;;;4949610;28;20379;-78
2022/09/05 00:32:35;;;;;;;;;;;17.20;99.90;;;;;;4969351;28;19914;-79
2022/09/05 00:35:00;;;;;;;;;;;17.20;99.90;;;;;;4973365;28;19949;-81
2022/09/05 00:37:25;;;;;;;;;;;17.20;99.90;;;;;;4971204;28;19921;-79
2022/09/05 00:39:51;;;;;;;;;;;17.10;99.90;;;;;;4965321;28;19915;-81
2022/09/05 00:42:18;;;;;;;;;;;17.10;99.90;;;;;;4948952;28;20304;-80
2022/09/05 00:44:49;;;;;;;;;;;17.10;99.90;;;;;;4968282;28;20035;-80
2022/09/05 00:47:41;;;;;;;;;;;17.10;99.90;;;;;;4963098;28;19941;-79
2022/09/05 00:50:28;;;;;;;;;;;17.00;99.90;;;;;;4945463;28;19995;-82
2022/09/05 00:53:00;;;;;;;;;;;17.10;99.90;;;;;;4968452;28;19937;-79
2022/09/05 00:55:35;;;;;;;;;;;17.00;99.90;;;;;;4950854;28;19957;-81
2022/09/05 00:58:09;;;;;;;;;;;17.00;99.90;;;;;;4958084;28;19945;-80
2022/09/05 01:00:50;;;;;;;;;;;17.00;99.90;;;;;;4971571;28;19910;-78
2022/09/05 01:03:19;;;;;;;;;;;16.90;99.90;;;;;;4975039;28;20010;-80
2022/09/05 01:05:51;;;;;;;;;;;16.90;99.90;;;;;;4974769;28;19914;-79
2022/09/05 01:08:36;;;;;;;;;;;16.90;99.90;;;;;;4965429;28;19915;-81
2022/09/05 01:11:02;;;;;;;;;;;16.80;99.90;;;;;;4961050;28;19916;-80
2022/09/05 01:13:39;;;;;;;;;;;16.90;99.90;;;;;;4956673;28;19914;-82
2022/09/05 01:16:10;;;;;;;;;;;16.80;99.90;;;;;;4968861;28;20347;-80
2022/09/05 01:18:38;;;;;;;;;;;16.80;99.90;;;;;;4947504;28;19925;-82
2022/09/05 01:21:30;;;;;;;;;;;16.70;99.90;;;;;;4978096;28;19984;-82
2022/09/05 01:24:01;;;;;;;;;;;16.80;99.90;;;;;;4953534;28;19922;-79
2022/09/05 01:26:38;;;;;;;;;;;16.80;99.90;;;;;;4971904;28;19914;-82
2022/09/05 01:29:07;;;;;;;;;;;16.80;99.90;;;;;;4952875;28;19957;-80
2022/09/05 01:31:32;;;;;;;;;;;16.70;99.90;;;;;;4969625;28;19913;-81
2022/09/05 01:34:17;;;;;;;;;;;16.70;99.90;;;;;;4952732;28;19973;-79
2022/09/05 01:36:42;;;;;;;;;;;16.70;99.90;;;;;;4968265;28;19918;-80
2022/09/05 01:39:20;;;;;;;;;;;16.70;99.90;;;;;;4973352;28;20437;-81
2022/09/05 01:42:04;;;;;;;;;;;16.70;99.90;;;;;;4950417;28;19919;-80
2022/09/05 01:44:39;;;;;;;;;;;16.60;99.90;;;;;;4972237;28;19910;-82
2022/09/05 01:47:23;;;;;;;;;;;16.60;99.90;;;;;;4979414;28;19914;-78
2022/09/05 01:50:11;;;;;;;;;;;16.60;99.90;;;;;;4973431;28;19921;-81
2022/09/05 01:52:46;;;;;;;;;;;16.60;99.90;;;;;;4957050;28;19917;-80
2022/09/05 01:55:39;;;;;;;;;;;16.50;99.90;;;;;;4957244;28;19918;-82
2022/09/05 01:58:07;;;;;;;;;;;16.50;99.90;;;;;;4949988;28;20249;-84
2022/09/05 02:00:35;;;;;;;;;;;16.50;99.90;;;;;;4965792;28;19918;-80
2022/09/05 02:03:14;;;;;;;;;;;16.50;99.90;;;;;;4971889;28;19914;-83
2022/09/05 02:05:58;;;;;;;;;;;16.50;99.90;;;;;;4973257;28;19910;-84
2022/09/05 02:08:38;;;;;;;;;;;16.50;99.90;;;;;;4966593;28;19914;-79
2022/09/05 02:11:08;;;;;;;;;;;16.50;99.90;;;;;;4954838;28;20368;-81
2022/09/05 02:13:33;;;;;;;;;;;16.50;99.90;;;;;;4973614;28;19911;-79
2022/09/05 02:16:11;;;;;;;;;;;16.40;99.90;;;;;;4973979;28;19913;-79
2022/09/05 02:18:40;;;;;;;;;;;16.40;99.90;;;;;;4971486;28;19925;-79
2022/09/05 02:21:14;;;;;;;;;;;16.40;99.90;;;;;;4974131;28;19914;-79
2022/09/05 02:23:46;;;;;;;;;;;16.40;99.90;;;;;;4974349;28;20419;-81
2022/09/05 02:26:16;;;;;;;;;;;16.40;99.90;;;;;;4970698;28;19921;-81
2022/09/05 02:28:42;;;;;;;;;;;16.40;99.90;;;;;;4973592;28;19914;-81
2022/09/05 02:31:14;;;;;;;;;;;16.50;99.90;;;;;;4963565;28;19972;-81
2022/09/05 02:33:46;;;;;;;;;;;16.50;99.90;;;;;;4980280;28;19981;-82
2022/09/05 02:36:30;;;;;;;;;;;16.50;99.90;;;;;;4951509;28;20368;-80
2022/09/05 02:39:13;;;;;;;;;;;16.50;99.90;;;;;;4965329;28;19918;-83
2022/09/05 02:41:56;;;;;;;;;;;16.50;99.90;;;;;;4958888;28;19910;-80
2022/09/05 02:44:40;;;;;;;;;;;16.50;99.90;;;;;;4972342;28;19945;-82
2022/09/05 02:47:13;;;;;;;;;;;16.50;99.90;;;;;;4979624;28;19916;-82
2022/09/05 02:49:44;;;;;;;;;;;16.50;99.90;;;;;;4952454;28;19910;-82
2022/09/05 02:52:12;;;;;;;;;;;16.50;99.90;;;;;;4973290;28;19925;-82
2022/09/05 02:54:43;;;;;;;;;;;16.40;99.90;;;;;;4966533;28;20061;-81
2022/09/05 02:57:27;;;;;;;;;;;16.40;99.90;;;;;;4947470;28;19921;-81
2022/09/05 03:00:14;;;;;;;;;;;16.30;99.90;;;;;;4978353;28;19914;-81
2022/09/05 03:02:58;;;;;;;;;;;16.30;99.90;;;;;;4957610;28;19914;-80
2022/09/05 03:05:30;;;;;;;;;;;16.30;99.90;;;;;;4975562;28;19940;-82
2022/09/05 03:08:14;;;;;;;;;;;16.30;99.90;;;;;;4976357;28;19918;-79
2022/09/05 03:10:49;;;;;;;;;;;16.30;99.90;;;;;;4981935;28;20489;-80
2022/09/05 03:13:17;;;;;;;;;;;16.30;99.90;;;;;;4962739;28;19936;-79
2022/09/05 03:15:55;;;;;;;;;;;16.20;99.90;;;;;;4970938;28;19937;-80
2022/09/05 03:18:42;;;;;;;;;;;16.20;99.90;;;;;;4977645;28;19921;-82
2022/09/05 03:21:14;;;;;;;;;;;16.20;99.90;;;;;;4960457;28;19918;-81
2022/09/05 03:24:04;;;;;;;;;;;16.20;99.90;;;;;;4955313;28;19990;-83
2022/09/05 03:26:49;;;;;;;;;;;16.10;99.90;;;;;;4964885;28;19917;-83
2022/09/05 03:29:29;;;;;;;;;;;16.10;99.90;;;;;;4955255;28;19918;-81
2022/09/05 03:32:13;;;;;;;;;;;16.10;99.90;;;;;;4970502;28;19911;-80
2022/09/05 03:35:31;;;;;;;;;;;16.10;99.90;;;;;;4970562;28;19922;-85
2022/09/05 03:38:14;;;;;;;;;;;16.10;99.90;;;;;;4975380;28;20009;-82
2022/09/05 03:40:58;;;;;;;;;;;16.10;99.90;;;;;;4956667;28;19953;-83
2022/09/05 03:43:28;;;;;;;;;;;16.00;99.90;;;;;;4980944;28;19925;-81
2022/09/05 03:46:00;;;;;;;;;;;16.10;99.90;;;;;;4954749;28;19910;-82
2022/09/05 03:48:44;;;;;;;;;;;16.00;99.90;;;;;;4968150;28;19914;-81
2022/09/05 03:51:17;;;;;;;;;;;16.10;99.90;;;;;;4966523;28;19935;-83
2022/09/05 03:54:03;;;;;;;;;;;16.00;99.90;;;;;;4964224;28;19926;-83
2022/09/05 03:56:47;;;;;;;;;;;14.40;99.90;;;;;;4967710;28;19914;-81
2022/09/05 03:59:13;;;;;;;;;;;16.10;99.90;;;;;;4973919;28;20335;-81
2022/09/05 04:01:50;;;;;;;;;;;16.00;99.90;;;;;;4978183;28;19905;-82
2022/09/05 04:04:22;;;;;;;;;;;16.00;99.90;;;;;;4967105;28;19942;-82
2022/09/05 04:06:52;;;;;;;;;;;16.00;99.90;;;;;;4969247;28;19925;-82
2022/09/05 04:09:21;;;;;;;;;;;16.00;99.90;;;;;;4973486;28;20008;-77
2022/09/05 04:11:48;;;;;;;;;;;15.90;99.90;;;;;;4952395;28;19910;-81
2022/09/05 04:14:14;;;;;;;;;;;18.50;99.90;;;;;;4969626;28;19917;-81
2022/09/05 04:16:47;;;;;;;;;;;15.90;99.90;;;;;;4977154;28;19913;-79
2022/09/05 04:19:16;;;;;;;;;;;15.90;99.90;;;;;;4975831;28;19909;-80
2022/09/05 04:21:50;;;;;;;;;;;15.90;99.90;;;;;;4945894;28;19944;-79
2022/09/05 04:24:26;;;;;;;;;;;15.90;99.90;;;;;;4955564;28;20305;-80
2022/09/05 04:27:03;;;;;;;;;;;15.90;99.90;;;;;;4969938;28;19914;-80
2022/09/05 04:29:38;;;;;;;;;;;15.90;99.90;;;;;;4955675;28;19914;-79
2022/09/05 04:32:17;;;;;;;;;;;15.80;99.90;;;;;;4970246;28;19933;-81
2022/09/05 04:34:45;;;;;;;;;;;15.80;99.90;;;;;;4951389;28;19964;-82
2022/09/05 04:37:29;;;;;;;;;;;15.80;99.90;;;;;;4970615;28;19934;-82
2022/09/05 04:39:54;;;;;;;;;;;15.80;99.90;;;;;;4961785;28;19909;-82
2022/09/05 04:42:23;;;;;;;;;;;15.80;99.90;;;;;;4976455;28;19924;-81
2022/09/05 04:44:51;;;;;;;;;;;17.70;99.90;;;;;;4949903;28;19910;-81
2022/09/05 04:47:22;;;;;;;;;;;15.90;99.90;;;;;;4948558;28;19925;-83
2022/09/05 04:50:05;;;;;;;;;;;16.60;99.90;;;;;;4956422;28;19922;-81
2022/09/05 04:52:39;;;;;;;;;;;15.90;99.90;;;;;;4955841;28;19941;-84
2022/09/05 04:55:26;;;;;;;;;;;15.80;99.90;;;;;;4951070;28;19925;-82
2022/09/05 04:57:55;;;;;;;;;;;15.80;99.90;;;;;;4969183;28;21004;-82
2022/09/05 05:00:24;;;;;;;;;;;15.80;99.90;;;;;;4969891;28;19910;-83
2022/09/05 05:02:51;;;;;;;;;;;16.10;99.90;;;;;;4971911;28;19925;-82
2022/09/05 05:05:19;;;;;;;;;;;15.80;99.90;;;;;;4953538;28;19910;-83
2022/09/05 05:07:51;;;;;;;;;;;15.80;99.90;;;;;;4979091;28;19914;-84
2022/09/05 05:10:20;;;;;;;;;;;15.80;99.90;;;;;;4966859;28;19938;-83
2022/09/05 05:12:45;;;;;;;;;;;15.80;99.90;;;;;;4955538;28;19914;-84
2022/09/05 05:15:16;;;;;;;;;;;15.80;99.90;;;;;;4961942;28;19965;-83
2022/09/05 05:17:51;;;;;;;;;;;15.80;99.90;;;;;;4967675;28;19996;-83
2022/09/05 05:20:29;;;;;;;;;;;15.80;99.90;;;;;;4955335;28;19913;-83
2022/09/05 05:23:02;;;;;;;;;;;15.80;99.90;;;;;;4974258;28;20620;-84
2022/09/05 05:25:30;;;;;;;;;;;15.80;99.90;;;;;;4965633;28;19933;-83
2022/09/05 05:28:04;;;;;;;;;;;15.80;99.90;;;;;;4958583;28;20202;-83
2022/09/05 05:30:31;;;;;;;;;;;15.80;99.90;;;;;;4953390;28;19916;-83
2022/09/05 05:32:59;;;;;;;;;;;15.80;99.90;;;;;;4954486;28;20004;-83
2022/09/05 05:35:29;;;;;;;;;;;16.60;99.90;;;;;;4959088;28;19914;-84
2022/09/05 05:38:01;;;;;;;;;;;15.80;99.90;;;;;;4969507;28;19973;-80
2022/09/05 05:40:29;;;;;;;;;;;15.90;99.90;;;;;;4949138;28;19937;-81
2022/09/05 05:43:13;;;;;;;;;;;15.90;99.90;;;;;;4952682;28;19911;-83
2022/09/05 05:45:39;;;;;;;;;;;15.90;99.90;;;;;;4951556;28;19921;-82
2022/09/05 05:48:23;;;;;;;;;;;15.90;99.90;;;;;;4950784;28;19911;-81
2022/09/05 05:51:00;;;;;;;;;;;16.00;99.90;;;;;;4940436;28;19966;-81
2022/09/05 05:53:33;;;;;;;;;;;16.00;99.90;;;;;;4967660;28;20133;-84
2022/09/05 05:56:07;;;;;;;;;;;16.00;99.90;;;;;;4964279;28;19914;-84
2022/09/05 05:58:51;;;;;;;;;;;16.00;99.90;;;;;;4961782;28;19914;-84
2022/09/05 06:01:25;;;;;;;;;;;16.00;99.90;;;;;;4957949;28;19918;-81
2022/09/05 06:04:04;;;;;;;;;;;16.10;99.90;;;;;;4945398;28;19910;-85
2022/09/05 06:06:41;;;;;;;;;;;16.10;99.90;;;;;;4956330;28;19910;-81
2022/09/05 06:09:30;;;;;;;;;;;16.20;99.90;;;;;;4957880;28;19914;-83
2022/09/05 06:12:05;;;;;;;;;;;16.20;99.90;;;;;;4942574;28;20195;-81
2022/09/05 06:14:47;;;;;;;;;;;16.20;99.90;;;;;;4967792;28;19914;-84
2022/09/05 06:17:32;;;;;;;;;;;16.40;99.90;;;;;;4945866;28;20110;-85
2022/09/05 06:20:07;;;;;;;;;;;16.50;99.90;;;;;;4967640;28;19961;-82
2022/09/05 06:23:05;;;;;;;;;;;16.50;99.90;;;;;;4961165;28;19914;-81
2022/09/05 06:25:49;;;;;;;;;;;16.60;99.90;;;;;;4971396;28;19919;-84
2022/09/05 06:28:32;;;;;;;;;;;16.70;99.90;;;;;;4950088;28;20412;-79
2022/09/05 06:31:01;;;;;;;;;;;16.70;99.90;;;;;;4958873;28;19924;-82
2022/09/05 06:33:26;;;;;;;;;;;16.80;99.90;;;;;;4965260;28;19914;-80
2022/09/05 06:36:12;;;;;;;;;;;17.00;99.90;;;;;;4943494;28;19914;-83
2022/09/05 06:38:57;;;;;;;;;;;17.00;99.90;;;;;;4943336;28;20244;-83
2022/09/05 06:41:34;;;;;;;;;;;17.20;99.90;;;;;;4975711;28;20198;-79
2022/09/05 06:44:19;;;;;;;;;;;17.30;99.90;;;;;;4974963;28;19910;-82
2022/09/05 06:46:48;;;;;;;;;;;17.50;99.90;;;;;;4964063;28;20000;-83
2022/09/05 06:49:16;;;;;;;;;;;17.50;99.90;;;;;;4954416;28;19998;-80
2022/09/05 06:51:55;;;;;;;;;;;17.60;99.90;;;;;;4951790;28;20324;-84
2022/09/05 06:54:27;;;;;;;;;;;17.80;99.90;;;;;;4950062;28;19964;-81
2022/09/05 06:57:32;;;;;;;;;;;18.00;99.90;;;;;;4947743;28;19911;-81
2022/09/05 07:00:04;;;;;;;;;;;18.10;99.90;;;;;;4914912;29;19921;-81
2022/09/05 07:02:34;;;;;;;;;;;18.20;99.90;;;;;;4929662;29;20000;-83
2022/09/05 07:05:13;;;;;;;;;;;18.50;99.90;;;;;;4925500;28;20408;-82
2022/09/05 07:07:44;;;;;;;;;;;18.70;99.90;;;;;;4950463;28;19999;-81
2022/09/05 07:10:16;;;;;;;;;;;18.80;99.90;;;;;;4971117;28;19917;-81
2022/09/05 07:12:47;;;;;;;;;;;18.90;99.90;;;;;;4951847;28;19921;-83
2022/09/05 07:15:22;;;;;;;;;;;19.00;99.90;;;;;;4950761;28;20339;-81
2022/09/05 07:17:50;;;;;;;;;;;19.30;99.90;;;;;;4963834;28;19965;-83
2022/09/05 07:20:33;;;;;;;;;;;19.40;99.90;;;;;;4964771;28;19990;-84
2022/09/05 07:23:07;;;;;;;;;;;19.60;99.90;;;;;;4967924;28;19916;-84
2022/09/05 07:25:33;;;;;;;;;;;19.70;99.90;;;;;;4943861;28;19922;-79
2022/09/05 07:28:07;;;;;;;;;;;19.90;99.90;;;;;;4962110;28;19919;-81
2022/09/05 07:30:34;;;;;;;;;;;20.00;99.90;;;;;;4952261;28;19969;-83
2022/09/05 07:33:01;;;;;;;;;;;20.20;99.90;;;;;;4967254;28;19921;-82
2022/09/05 07:35:29;;;;;;;;;;;20.30;99.90;;;;;;4939140;28;19949;-81
2022/09/05 07:38:03;;;;;;;;;;;20.40;99.90;;;;;;4972829;28;19918;-80
2022/09/05 07:40:31;;;;;;;;;;;20.60;99.90;;;;;;4950495;28;19953;-78
2022/09/05 07:43:02;;;;;;;;;;;21.00;99.90;;;;;;4968466;28;19914;-80
2022/09/05 07:45:28;;;;;;;;;;;21.00;99.90;;;;;;4967185;28;20005;-79
2022/09/05 07:48:00;;;;;;;;;;;21.20;99.90;;;;;;4962031;28;20008;-79
2022/09/05 07:50:27;;;;;;;;;;;21.20;99.90;;;;;;4968742;28;20359;-80
2022/09/05 07:52:54;;;;;;;;;;;21.30;99.90;;;;;;4967172;28;19950;-78
2022/09/05 07:55:24;;;;;;;;;;;21.40;99.90;;;;;;4955290;28;19940;-82
2022/09/05 07:57:50;;;;;;;;;;;21.60;99.90;;;;;;4960490;28;19919;-82
2022/09/05 08:00:20;;;;;;;;;;;21.80;99.90;;;;;;4960564;28;19921;-83
2022/09/05 08:02:46;;;;;;;;;;;21.80;99.90;;;;;;4968619;28;19914;-80
2022/09/05 08:05:19;;;;;;;;;;;22.00;99.90;;;;;;4971419;28;19944;-82
2022/09/05 08:07:47;;;;;;;;;;;22.10;99.90;;;;;;4957193;28;19937;-82
2022/09/05 08:10:14;;;;;;;;;;;22.10;99.90;;;;;;4961546;28;19922;-82
2022/09/05 08:12:42;;;;;;;;;;;22.30;99.90;;;;;;4966967;28;19914;-80
2022/09/05 08:15:15;;;;;;;;;;;22.40;99.90;;;;;;4968737;28;19921;-81
2022/09/05 08:17:59;;;;;;;;;;;22.60;99.90;;;;;;4956902;28;19910;-79
2022/09/05 08:20:31;;;;;;;;;;;22.70;99.90;;;;;;4954558;28;20372;-79
2022/09/05 08:23:02;;;;;;;;;;;22.80;99.90;;;;;;4967778;28;19914;-83
2022/09/05 08:25:31;;;;;;;;;;;22.90;99.90;;;;;;4978874;28;19969;-84
2022/09/05 08:27:57;;;;;;;;;;;23.00;99.90;;;;;;4961405;28;19910;-82
2022/09/05 08:30:23;;;;;;;;;;;23.10;99.90;;;;;;4951940;28;20475;-82
2022/09/05 08:32:57;;;;;;;;;;;23.20;99.90;;;;;;4977382;28;19962;-81
2022/09/05 08:35:30;;;;;;;;;;;23.40;99.50;;;;;;4973074;28;19914;-78
2022/09/05 08:37:56;;;;;;;;;;;23.50;99.40;;;;;;4957754;28;19914;-80
2022/09/05 08:40:22;;;;;;;;;;;23.60;98.90;;;;;;4962992;28;19914;-82
2022/09/05 08:42:58;;;;;;;;;;;23.50;98.30;;;;;;4970370;28;19910;-81
2022/09/05 08:45:41;;;;;;;;;;;23.70;98.50;;;;;;4955147;28;19918;-81
2022/09/05 08:48:06;;;;;;;;;;;23.80;98.60;;;;;;4945087;28;20487;-81
2022/09/05 08:50:38;;;;;;;;;;;23.90;98.20;;;;;;4960225;28;19910;-80
2022/09/05 08:53:22;;;;;;;;;;;24.10;98.30;;;;;;4959391;28;19914;-82
2022/09/05 08:55:51;;;;;;;;;;;24.30;97.40;;;;;;4946541;28;19969;-82
2022/09/05 08:58:28;;;;;;;;;;;24.30;97.10;;;;;;4957910;28;19925;-82
2022/09/05 09:01:01;;;;;;;;;;;24.30;97.40;;;;;;4950164;28;19973;-81
2022/09/05 09:03:42;;;;;;;;;;;24.50;97.30;;;;;;4950671;28;19918;-80
2022/09/05 09:06:17;;;;;;;;;;;24.70;96.50;;;;;;4962590;28;19928;-82
2022/09/05 09:08:45;;;;;;;;;;;24.70;96.70;;;;;;4954475;28;19910;-81
2022/09/05 09:11:15;;;;;;;;;;;24.40;96.70;;;;;;4975500;28;19985;-84
2022/09/05 09:13:46;;;;;;;;;;;26.00;97.10;;;;;;4965524;28;19910;-83
2022/09/05 09:16:12;;;;;;;;;;;24.70;96.20;;;;;;4965980;28;20264;-81
2022/09/05 09:19:00;;;;;;;;;;;24.70;96.40;;;;;;4967563;28;19921;-81
2022/09/05 09:21:32;;;;;;;;;;;24.90;95.90;;;;;;4955268;28;19961;-81
2022/09/05 09:24:07;;;;;;;;;;;25.10;95.60;;;;;;4959355;28;19918;-82
2022/09/05 09:26:51;;;;;;;;;;;25.20;94.80;;;;;;4966325;28;19914;-82
2022/09/05 09:29:17;;;;;;;;;;;25.20;95.00;;;;;;4944632;28;19926;-79
2022/09/05 09:31:58;;;;;;;;;;;25.30;94.20;;;;;;4949959;28;19920;-81
2022/09/05 09:34:28;;;;;;;;;;;25.30;93.60;;;;;;4953141;28;19910;-82
2022/09/05 09:36:56;;;;;;;;;;;25.60;93.30;;;;;;4951062;28;19920;-81
2022/09/05 09:39:43;;;;;;;;;;;25.60;93.40;;;;;;4961950;28;19950;-81
2022/09/05 09:42:08;;;;;;;;;;;25.80;93.10;;;;;;4950468;28;19914;-80
2022/09/05 09:45:00;;;;;;;;;;;26.00;93.30;;;;;;4966865;28;19961;-80
2022/09/05 09:47:46;;;;;;;;;;;26.20;93.00;;;;;;4977893;28;20184;-80
2022/09/05 09:50:11;;;;;;;;;;;26.20;93.00;;;;;;4958082;28;19977;-80
2022/09/05 09:52:52;;;;;;;;;;;26.40;92.00;;;;;;4965178;28;19926;-79
2022/09/05 09:55:39;;;;;;;;;;;26.40;91.90;;;;;;4977080;28;19972;-81
2022/09/05 09:58:06;;;;;;;;;;;26.50;91.40;;;;;;4957566;28;19914;-81
2022/09/05 10:00:51;;;;;;;;;;;26.60;91.90;;;;;;4955426;28;19926;-79
2022/09/05 10:03:40;;;;;;;;;;;26.70;90.80;;;;;;4947959;28;19929;-81
2022/09/05 10:06:15;;;;;;;;;;;26.70;90.20;;;;;;4938519;28;19918;-80
2022/09/05 10:08:40;;;;;;;;;;;26.70;90.50;;;;;;4967849;28;19944;-82
2022/09/05 10:11:06;;;;;;;;;;;;;;;;;;4962204;28;19934;-79
2022/09/05 10:13:51;;;;;;;;;;;27.00;88.10;;;;;;4962383;28;19925;-79
2022/09/05 10:16:25;;;;;;;;;;;27.00;86.80;;;;;;4976284;28;19914;-80
2022/09/05 10:18:59;;;;;;;;;;;27.00;87.50;;;;;;4953855;28;19914;-81
2022/09/05 10:21:34;;;;;;;;;;;27.20;87.10;;;;;;4951891;28;19910;-81
2022/09/05 10:24:12;;;;;;;;;;;27.40;88.40;;;;;;4956430;28;19914;-81
2022/09/05 10:26:43;;;;;;;;;;;27.50;85.30;;;;;;4954028;28;19914;-79
2022/09/05 10:29:10;;;;;;;;;;;27.50;85.30;;;;;;4973321;28;19928;-82
2022/09/05 10:31:45;;;;;;;;;;;27.60;85.80;;;;;;4970103;28;19910;-78
2022/09/05 10:34:22;;;;;;;;;;;27.60;83.80;;;;;;4951295;28;19914;-77
2022/09/05 10:37:09;;;;;;;;;;;27.70;82.60;;;;;;4945731;28;20369;-80
2022/09/05 10:39:37;;;;;;;;;;;27.70;82.30;;;;;;4961549;28;19973;-80
2022/09/05 10:42:14;;;;;;;;;;;27.80;82.10;;;;;;4967213;28;20329;-79
2022/09/05 10:44:42;;;;;;;;;;;27.80;81.70;;;;;;4966564;28;20395;-79
2022/09/05 10:47:10;;;;;;;;;;;27.90;81.10;;;;;;4955721;28;19932;-78
2022/09/05 10:49:41;;;;;;;;;;;28.10;81.80;;;;;;4960750;28;20009;-79
2022/09/05 10:52:20;;;;;;;;;;;28.10;80.50;;;;;;4962157;28;20415;-79
2022/09/05 10:55:00;;;;;;;;;;;28.30;80.50;;;;;;4951545;28;20355;-78
2022/09/05 10:57:41;;;;;;;;;;;28.40;79.80;;;;;;4956261;28;19918;-80
2022/09/05 11:00:28;;;;;;;;;;;28.50;78.20;;;;;;4965202;28;20309;-80
2022/09/05 11:02:56;;;;;;;;;;;28.50;78.60;;;;;;4963247;28;19918;-81
2022/09/05 11:05:31;;;;;;;;;;;28.50;79.40;;;;;;4944897;28;20046;-81
2022/09/05 11:08:04;;;;;;;;;;;28.70;77.10;;;;;;4948247;28;19914;-79
2022/09/05 11:10:48;;;;;;;;;;;28.80;77.00;;;;;;4962687;28;20466;-80
2022/09/05 11:13:13;;;;;;;;;;;28.80;77.30;;;;;;4945358;28;20386;-80
2022/09/05 11:15:45;;;;;;;;;;;28.90;74.00;;;;;;4953311;28;19914;-79
2022/09/05 11:18:18;;;;;;;;;;;28.90;74.40;;;;;;4970231;28;20268;-81
2022/09/05 11:20:43;;;;;;;;;;;28.90;72.80;;;;;;4948578;28;21169;-81
2022/09/05 11:23:11;;;;;;;;;;;29.00;72.80;;;;;;4948629;28;19910;-81
2022/09/05 11:25:38;;;;;;;;;;;29.00;72.40;;;;;;4945848;28;20392;-82
2022/09/05 11:28:24;;;;;;;;;;;29.10;73.50;;;;;;4968711;28;19916;-81
2022/09/05 11:30:52;;;;;;;;;;;29.20;72.90;;;;;;4969069;28;19965;-82
2022/09/05 11:33:36;;;;;;;;;;;29.20;72.50;;;;;;4954425;28;19977;-80
2022/09/05 11:36:06;;;;;;;;;;;29.10;70.30;;;;;;4961681;28;19976;-82
2022/09/05 11:38:51;;;;;;;;;;;29.10;70.80;;;;;;4952419;28;20325;-81
2022/09/05 11:41:28;;;;;;;;;;;29.10;71.80;;;;;;4949076;28;20030;-81
2022/09/05 11:44:03;;;;;;;;;;;27.90;68.50;;;;;;4963229;28;19992;-81
2022/09/05 11:46:40;;;;;;;;;;;29.30;67.70;;;;;;4968972;28;20024;-80
2022/09/05 11:49:31;;;;;;;;;;;29.40;68.00;;;;;;4948085;28;20046;-80
2022/09/05 11:52:15;;;;;;;;;;;29.60;67.00;;;;;;4949461;28;20393;-79
2022/09/05 11:54:56;;;;;;;;;;;29.60;67.10;;;;;;4959292;28;20350;-80
2022/09/05 11:57:25;;;;;;;;;;;29.50;67.50;;;;;;4966754;28;19969;-81
2022/09/05 11:59:56;;;;;;;;;;;29.50;67.40;;;;;;4950281;28;19911;-80
2022/09/05 12:02:25;;;;;;;;;;;29.50;68.90;;;;;;4952648;28;19918;-83
2022/09/05 12:04:53;;;;;;;;;;;29.60;68.20;;;;;;4959963;28;19918;-82
2022/09/05 12:07:34;;;;;;;;;;;29.70;67.60;;;;;;4956435;28;19910;-81
2022/09/05 12:10:21;;;;;;;;;;;29.80;67.60;;;;;;4961451;28;19910;-83
2022/09/05 12:12:55;;;;;;;;;;;29.90;67.60;;;;;;4950792;28;20336;-81
2022/09/05 12:15:21;;;;;;;;;;;29.90;68.20;;;;;;4961346;28;19977;-81
2022/09/05 12:17:49;;;;;;;;;;;29.90;64.80;;;;;;4940097;28;20452;-81
2022/09/05 12:20:21;;;;;;;;;;;30.10;66.60;;;;;;4956716;28;19909;-82
2022/09/05 12:23:19;;;;;;;;;;;30.10;64.20;;;;;;4946821;28;19937;-80
2022/09/05 12:25:49;;;;;;;;;;;30.10;63.10;;;;;;4933100;28;19914;-81
2022/09/05 12:28:18;;;;;;;;;;;30.20;64.30;;;;;;4960741;28;19929;-81
2022/09/05 12:30:44;;;;;;;;;;;30.20;64.90;;;;;;4971228;28;19921;-81
2022/09/05 12:33:10;;;;;;;;;;;30.20;65.40;;;;;;4953829;28;20348;-84
2022/09/05 12:35:40;;;;;;;;;;;30.20;65.70;;;;;;4960557;28;19934;-84
2022/09/05 12:38:24;;;;;;;;;;;30.20;64.80;;;;;;4949821;28;20005;-82
2022/09/05 12:40:55;;;;;;;;;;;29.90;65.40;;;;;;4954053;28;20199;-83
2022/09/05 12:43:24;;;;;;;;;;;29.90;66.00;;;;;;4953542;28;19985;-81
2022/09/05 12:46:10;;;;;;;;;;;29.70;66.20;;;;;;4969382;28;20037;-81
2022/09/05 12:48:42;;;;;;;;;;;29.70;66.00;;;;;;4946689;28;20500;-80
2022/09/05 12:51:08;;;;;;;;;;;29.80;66.10;;;;;;4952142;28;20260;-80
2022/09/05 12:53:51;;;;;;;;;;;30.00;65.00;;;;;;4961077;28;19916;-82
2022/09/05 12:56:38;;;;;;;;;;;30.10;65.00;;;;;;4940632;28;20391;-82
2022/09/05 12:59:05;;;;;;;;;;;30.20;64.10;;;;;;4964591;28;19957;-81
2022/09/05 13:01:37;;;;;;;;;;;30.30;64.20;;;;;;4961370;28;20367;-80
2022/09/05 13:04:20;;;;;;;;;;;30.30;63.10;;;;;;4947154;28;19925;-81
2022/09/05 13:06:55;;;;;;;;;;;30.40;62.70;;;;;;4952129;28;19941;-81
2022/09/05 13:09:33;;;;;;;;;;;30.30;62.60;;;;;;4967803;28;19946;-81
2022/09/05 13:12:19;;;;;;;;;;;30.40;62.80;;;;;;4950076;28;19910;-81
2022/09/05 13:14:44;;;;;;;;;;;30.70;62.40;;;;;;4970192;28;20262;-81
2022/09/05 13:17:12;;;;;;;;;;;30.80;62.00;;;;;;4951511;28;19925;-82
2022/09/05 13:19:44;;;;;;;;;;;30.70;61.70;;;;;;4961697;28;19914;-81
2022/09/05 13:22:13;;;;;;;;;;;30.80;61.90;;;;;;4960749;28;19962;-83
2022/09/05 13:24:40;;;;;;;;;;;30.70;61.70;;;;;;4960470;28;19921;-83
2022/09/05 13:27:12;;;;;;;;;;;30.80;62.10;;;;;;4939696;28;19988;-83
2022/09/05 13:29:52;;;;;;;;;;;30.80;61.00;;;;;;4947219;28;19933;-83
2022/09/05 13:32:21;;;;;;;;;;;30.90;61.60;;;;;;4951425;28;20284;-81
2022/09/05 13:35:07;;;;;;;;;;;31.00;60.70;;;;;;4943065;28;19917;-82
2022/09/05 13:37:38;;;;;;;;;;;31.00;60.80;;;;;;4959253;28;20668;-81
2022/09/05 13:40:10;;;;;;;;;;;31.00;60.20;;;;;;4960058;28;20364;-81
2022/09/05 13:42:42;;;;;;;;;;;31.00;59.70;;;;;;4959602;28;19977;-82
2022/09/05 13:45:14;;;;;;;;;;;31.00;60.30;;;;;;4961258;28;19941;-82
2022/09/05 13:47:43;;;;;;;;;;;31.00;60.10;;;;;;4945498;28;19913;-82
2022/09/05 13:50:18;;;;;;;;;;;30.90;60.10;;;;;;4958242;28;20387;-80
2022/09/05 13:52:56;;;;;;;;;;;31.00;59.60;;;;;;4961853;28;20348;-80
2022/09/05 13:55:27;;;;;;;;;;;31.10;59.20;;;;;;4952195;28;19918;-80
2022/09/05 13:57:55;;;;;;;;;;;31.10;59.00;;;;;;4947181;28;19914;-82
2022/09/05 14:00:24;;;;;;;;;;;31.10;58.70;;;;;;4950628;28;20451;-81
2022/09/05 14:02:58;;;;;;;;;;;31.10;58.60;;;;;;4967304;28;19910;-80
2022/09/05 14:05:27;;;;;;;;;;;31.10;59.90;;;;;;4951692;28;20335;-81
2022/09/05 14:08:31;;;;;;;;;;;31.00;58.60;;;;;;4948061;28;20328;-82
2022/09/05 14:11:05;;;;;;;;;;;30.70;59.50;;;;;;4904727;29;19919;-81
2022/09/05 14:13:33;;;;;;;;;;;30.40;59.50;;;;;;4959194;28;19910;-81
2022/09/05 14:16:06;;;;;;;;;;;30.00;61.00;;;;;;4952924;28;19965;-80
2022/09/05 14:21:14;;;;;;;;;;;29.80;61.00;;;;;;4969665;23;19930;-81
2022/09/05 14:21:20;;;;;;;;;;;29.60;61.40;;;;;;4968026;28;19914;-81
2022/09/05 14:23:57;;;;;;;;;;;29.50;61.80;;;;;;4948156;28;19968;-82
2022/09/05 14:26:28;;;;;;;;;;;29.50;66.30;;;;;;4983508;28;20206;-81
2022/09/05 14:29:15;;;;;;;;;;;29.60;66.60;;;;;;4968580;28;19906;-81
2022/09/05 14:32:02;;;;;;;;;;;30.00;67.20;;;;;;4942060;28;19960;-80
2022/09/05 14:34:39;;;;;;;;;;;30.10;68.40;;;;;;4942288;28;20431;-81
2022/09/05 14:37:10;;;;;;;;;;;30.30;67.90;;;;;;4947461;28;19937;-81
2022/09/05 14:39:44;;;;;;;;;;;30.40;67.50;;;;;;4949644;28;20130;-82
2022/09/05 14:42:12;;;;;;;;;;;30.20;67.50;;;;;;4964765;28;19914;-81
2022/09/05 14:45:02;;;;;;;;;;;30.00;68.40;;;;;;4957563;28;19916;-81
2022/09/05 14:47:41;;;;;;;;;;;29.80;69.30;;;;;;4941430;28;19937;-81
2022/09/05 14:50:28;;;;;;;;;;;29.70;69.30;;;;;;4947997;28;19993;-81
2022/09/05 14:53:05;;;;;;;;;;;29.50;69.70;;;;;;4966825;28;19910;-80
2022/09/05 14:55:31;;;;;;;;;;;29.50;70.40;;;;;;4951542;28;19961;-80
2022/09/05 14:57:57;;;;;;;;;;;29.70;70.30;;;;;;4952289;28;20004;-80
2022/09/05 15:00:23;;;;;;;;;;;29.70;70.50;;;;;;4948733;28;20394;-81
2022/09/05 15:02:51;;;;;;;;;;;29.90;70.10;;;;;;4964582;28;19910;-80